createdAt,value
2019-05-16T00:00:02.141Z,6.60
2019-05-16T00:02:30.552Z,6.60
2019-05-16T00:04:59.235Z,6.50
2019-05-16T00:07:28.314Z,6.50
2019-05-16T00:09:58.876Z,6.50
2019-05-16T00:12:29.174Z,6.40
2019-05-16T00:14:58.195Z,6.50
2019-05-16T00:17:28.428Z,6.60
2019-05-16T00:19:58.906Z,6.50
2019-05-16T00:22:28.777Z,6.50
2019-05-16T00:24:58.051Z,6.50
2019-05-16T00:27:28.073Z,6.50
2019-05-16T00:29:58.145Z,6.50
2019-05-16T00:32:28.224Z,6.40
2019-05-16T00:34:58.336Z,6.40
2019-05-16T00:37:28.660Z,6.30
2019-05-16T00:39:58.841Z,6.40
2019-05-16T00:42:28.661Z,6.30
2019-05-16T00:44:58.385Z,6.40
2019-05-16T00:47:28.394Z,6.40
2019-05-16T00:49:58.209Z,6.30
2019-05-16T00:52:28.862Z,6.30
2019-05-16T00:54:58.032Z,6.30
2019-05-16T00:57:28.207Z,6.30
2019-05-16T00:59:59.169Z,6.30
2019-05-16T01:02:28.852Z,6.40
2019-05-16T01:04:59.002Z,6.30
2019-05-16T01:07:27.818Z,6.40
2019-05-16T01:09:58.234Z,6.30
2019-05-16T01:12:28.350Z,6.30
2019-05-16T01:14:58.466Z,6.30
2019-05-16T01:17:28.379Z,6.30
2019-05-16T01:19:57.901Z,6.30
2019-05-16T01:22:28.819Z,6.30
2019-05-16T01:24:58.519Z,6.20
2019-05-16T01:27:27.783Z,6.20
2019-05-16T01:29:58.320Z,6.20
2019-05-16T01:32:31.860Z,6.30
2019-05-16T01:34:58.785Z,6.30
2019-05-16T01:37:27.888Z,6.20
2019-05-16T01:39:58.598Z,6.20
2019-05-16T01:42:27.862Z,6.20
2019-05-16T01:44:57.832Z,6.20
2019-05-16T01:47:28.638Z,6.20
2019-05-16T01:49:58.066Z,6.20
2019-05-16T01:52:28.904Z,6.10
2019-05-16T01:54:58.644Z,6.20
2019-05-16T01:57:28.205Z,6.20
2019-05-16T01:59:59.002Z,6.20
2019-05-16T02:02:28.917Z,6.10
2019-05-16T02:04:58.913Z,6.10
2019-05-16T02:07:28.363Z,6.10
2019-05-16T02:09:58.233Z,6.10
2019-05-16T02:12:27.775Z,6.10
2019-05-16T02:14:58.612Z,6.00
2019-05-16T02:17:28.978Z,6.10
2019-05-16T02:19:57.802Z,6.10
2019-05-16T02:22:28.398Z,6.10
2019-05-16T02:24:58.447Z,6.00
2019-05-16T02:27:28.545Z,6.00
2019-05-16T02:29:56.768Z,6.00
2019-05-16T02:32:25.293Z,6.00
2019-05-16T02:34:53.713Z,6.00
2019-05-16T02:37:29.340Z,6.10
2019-05-16T02:39:54.600Z,6.10
2019-05-16T02:42:22.761Z,6.00
2019-05-16T02:44:51.371Z,6.00
2019-05-16T02:47:21.028Z,6.00
2019-05-16T02:49:50.501Z,6.00
2019-05-16T02:52:21.761Z,5.90
2019-05-16T02:54:51.782Z,5.90
2019-05-16T02:57:21.222Z,6.00
2019-05-16T02:59:50.992Z,6.00
2019-05-16T03:02:20.552Z,5.90
2019-05-16T03:04:51.769Z,5.90
2019-05-16T03:07:36.462Z,5.90
2019-05-16T03:09:51.460Z,5.90
2019-05-16T03:12:22.180Z,5.80
2019-05-16T03:14:54.505Z,5.80
2019-05-16T03:17:25.914Z,5.80
2019-05-16T03:19:57.420Z,5.80
2019-05-16T03:22:31.259Z,5.80
2019-05-16T03:25:01.119Z,5.70
2019-05-16T03:27:30.581Z,5.60
2019-05-16T03:30:01.709Z,5.60
2019-05-16T03:32:33.940Z,5.50
2019-05-16T03:35:04.814Z,5.40
2019-05-16T03:37:30.876Z,5.40
2019-05-16T03:40:00.595Z,5.30
2019-05-16T03:42:31.070Z,5.30
2019-05-16T03:45:02.181Z,5.30
2019-05-16T03:47:31.280Z,5.30
2019-05-16T03:50:00.584Z,5.20
2019-05-16T03:52:31.040Z,5.20
2019-05-16T03:55:01.705Z,5.10
2019-05-16T03:57:30.699Z,5.10
2019-05-16T04:00:00.593Z,5.20
2019-05-16T04:02:30.921Z,5.20
2019-05-16T04:05:01.720Z,5.20
2019-05-16T04:07:31.807Z,5.20
2019-05-16T04:10:02.184Z,5.20
2019-05-16T04:12:30.912Z,5.20
2019-05-16T04:15:01.909Z,5.20
2019-05-16T04:17:31.677Z,5.10
2019-05-16T04:20:01.914Z,5.20
2019-05-16T04:22:31.823Z,5.30
2019-05-16T04:25:01.964Z,5.20
2019-05-16T04:27:30.865Z,5.30
2019-05-16T04:30:01.496Z,5.30
2019-05-16T04:32:31.458Z,5.40
2019-05-16T04:35:02.480Z,5.40
2019-05-16T04:37:31.447Z,5.50
2019-05-16T04:40:01.225Z,5.50
2019-05-16T04:42:31.089Z,5.50
2019-05-16T04:45:01.144Z,5.60
2019-05-16T04:47:31.661Z,5.60
2019-05-16T04:50:01.719Z,5.60
2019-05-16T04:52:30.706Z,5.70
2019-05-16T04:55:00.769Z,5.70
2019-05-16T04:57:31.265Z,5.80
2019-05-16T05:00:02.221Z,5.80
2019-05-16T05:02:30.947Z,5.90
2019-05-16T05:05:01.294Z,5.90
2019-05-16T05:07:31.363Z,5.90
2019-05-16T05:10:00.815Z,6.00
2019-05-16T05:12:31.493Z,6.00
2019-05-16T05:15:01.220Z,6.00
2019-05-16T05:17:30.618Z,6.20
2019-05-16T05:20:01.187Z,6.30
2019-05-16T05:22:30.438Z,6.30
2019-05-16T05:25:00.143Z,6.40
2019-05-16T05:27:30.312Z,6.50
2019-05-16T05:30:01.025Z,6.40
2019-05-16T05:32:30.595Z,6.50
2019-05-16T05:34:59.907Z,6.60
2019-05-16T05:37:29.834Z,6.60
2019-05-16T05:39:59.932Z,6.80
2019-05-16T05:42:30.584Z,6.80
2019-05-16T05:45:00.276Z,6.80
2019-05-16T05:47:30.782Z,6.80
2019-05-16T05:50:00.648Z,6.90
2019-05-16T05:52:30.291Z,7.00
2019-05-16T05:55:00.649Z,7.10
2019-05-16T05:57:29.994Z,7.00
2019-05-16T06:00:00.518Z,7.00
2019-05-16T06:02:30.928Z,7.10
2019-05-16T06:04:59.748Z,7.20
2019-05-16T06:07:30.035Z,7.20
2019-05-16T06:10:00.452Z,7.10
2019-05-16T06:12:30.274Z,7.10
2019-05-16T06:15:08.064Z,7.20
2019-05-16T06:17:30.694Z,7.30
2019-05-16T06:20:00.277Z,7.30
2019-05-16T06:22:29.864Z,7.20
2019-05-16T06:25:00.898Z,7.20
2019-05-16T06:27:30.238Z,7.20
2019-05-16T06:30:00.544Z,7.20
2019-05-16T06:32:30.394Z,7.20
2019-05-16T06:35:00.114Z,7.20
2019-05-16T06:37:30.971Z,7.20
2019-05-16T06:40:00.681Z,7.40
2019-05-16T06:42:29.937Z,7.40
2019-05-16T06:45:00.855Z,7.50
2019-05-16T06:47:30.498Z,7.50
2019-05-16T06:50:00.225Z,7.60
2019-05-16T06:52:30.117Z,7.90
2019-05-16T06:55:00.772Z,8.20
2019-05-16T06:57:30.194Z,8.30
2019-05-16T07:00:00.653Z,8.20
2019-05-16T07:02:33.582Z,8.30
2019-05-16T07:05:01.166Z,8.80
2019-05-16T07:07:30.798Z,8.70
2019-05-16T07:10:04.201Z,8.60
2019-05-16T07:12:33.706Z,8.80
2019-05-16T07:15:01.441Z,8.90
2019-05-16T07:17:30.668Z,8.70
2019-05-16T07:20:00.708Z,8.80
2019-05-16T07:22:31.235Z,8.70
2019-05-16T07:25:00.005Z,8.80
2019-05-16T07:27:30.666Z,8.80
2019-05-16T07:30:01.138Z,9.00
2019-05-16T07:52:35.480Z,9.20
2019-05-16T07:55:00.252Z,9.40
2019-05-16T07:57:30.609Z,9.60
2019-05-16T08:00:00.130Z,9.60
2019-05-16T08:02:31.100Z,9.70
2019-05-16T08:05:00.695Z,9.80
2019-05-16T08:07:33.232Z,9.90
2019-05-16T08:09:59.883Z,10.10
2019-05-16T08:12:32.838Z,10.50
2019-05-16T08:15:00.745Z,10.20
2019-05-16T08:17:31.307Z,10.20
2019-05-16T08:20:00.077Z,10.10
2019-05-16T08:22:30.608Z,10.40
2019-05-16T08:25:00.213Z,10.70
2019-05-16T08:27:31.336Z,10.70
2019-05-16T08:30:02.167Z,10.50
2019-05-16T08:32:31.158Z,10.40
2019-05-16T08:35:01.164Z,10.70
2019-05-16T08:37:38.414Z,11.10
2019-05-16T08:40:00.351Z,11.80
2019-05-16T08:42:32.370Z,11.70
2019-05-16T08:45:01.945Z,11.50
2019-05-16T08:47:32.170Z,11.50
2019-05-16T08:50:00.662Z,11.50
2019-05-16T08:52:31.557Z,11.20
2019-05-16T08:55:03.102Z,11.20
2019-05-16T08:57:33.846Z,11.10
2019-05-16T09:00:01.309Z,10.70
2019-05-16T09:02:35.757Z,10.90
2019-05-16T09:05:05.011Z,11.00
2019-05-16T09:07:31.993Z,11.10
2019-05-16T09:10:01.131Z,11.00
2019-05-16T09:12:29.592Z,11.30
2019-05-16T09:14:59.679Z,11.40
2019-05-16T09:17:28.199Z,11.40
2019-05-16T09:19:57.666Z,11.30
2019-05-16T09:22:28.233Z,11.30
2019-05-16T09:25:18.561Z,11.20
2019-05-16T09:27:47.033Z,11.20
2019-05-16T09:30:17.191Z,11.50
2019-05-16T09:32:48.018Z,11.90
2019-05-16T09:35:17.160Z,11.80
2019-05-16T09:37:47.378Z,11.80
2019-05-16T09:40:17.305Z,11.70
2019-05-16T09:42:47.409Z,11.70
2019-05-16T09:45:17.307Z,11.60
2019-05-16T09:47:48.508Z,11.70
2019-05-16T09:50:17.502Z,11.70
2019-05-16T09:52:47.254Z,11.60
2019-05-16T09:55:17.907Z,11.80
2019-05-16T09:57:46.907Z,12.00
2019-05-16T10:00:18.708Z,12.20
2019-05-16T10:02:47.889Z,12.40
2019-05-16T10:05:17.048Z,12.70
2019-05-16T10:07:47.071Z,12.90
2019-05-16T10:10:17.049Z,12.80
2019-05-16T10:12:45.635Z,12.50
2019-05-16T10:15:14.752Z,12.50
2019-05-16T10:17:43.182Z,12.50
2019-05-16T10:20:12.458Z,12.90
2019-05-16T10:22:40.950Z,13.30
2019-05-16T10:25:09.977Z,13.40
2019-05-16T10:27:38.391Z,13.30
2019-05-16T10:30:08.616Z,13.60
2019-05-16T10:32:39.849Z,14.10
2019-05-16T10:35:07.772Z,13.30
2019-05-16T10:37:37.565Z,13.00
2019-05-16T10:40:08.214Z,13.30
2019-05-16T10:42:37.904Z,13.50
2019-05-16T10:45:08.906Z,13.50
2019-05-16T10:47:37.445Z,13.50
2019-05-16T10:50:07.701Z,13.50
2019-05-16T10:52:36.856Z,13.30
2019-05-16T10:55:08.167Z,13.40
2019-05-16T10:57:37.843Z,13.50
2019-05-16T11:00:18.087Z,13.90
2019-05-16T11:02:38.368Z,13.90
2019-05-16T11:05:25.763Z,13.60
2019-05-16T11:07:37.783Z,13.70
2019-05-16T11:10:07.688Z,13.60
2019-05-16T11:12:47.634Z,13.70
2019-05-16T11:15:11.343Z,14.00
2019-05-16T11:17:39.114Z,13.90
2019-05-16T11:20:08.615Z,13.70
2019-05-16T11:22:37.282Z,13.30
2019-05-16T11:25:21.139Z,12.80
2019-05-16T11:27:37.509Z,13.00
2019-05-16T11:30:08.459Z,13.40
2019-05-16T11:32:37.657Z,13.70
2019-05-16T11:35:07.827Z,13.80
2019-05-16T11:37:37.463Z,14.00
2019-05-16T11:40:08.196Z,13.90
2019-05-16T11:42:37.788Z,13.80
2019-05-16T11:45:09.724Z,14.00
2019-05-16T11:47:38.576Z,14.40
2019-05-16T11:50:07.936Z,14.50
2019-05-16T11:52:36.380Z,14.30
2019-05-16T11:55:07.423Z,14.40
2019-05-16T11:57:37.982Z,14.40
2019-05-16T12:00:09.150Z,14.00
2019-05-16T12:02:40.218Z,14.20
2019-05-16T12:05:08.589Z,14.40
2019-05-16T12:07:43.756Z,14.70
2019-05-16T12:10:08.077Z,15.00
2019-05-16T12:12:37.102Z,15.20
2019-05-16T12:15:07.894Z,14.70
2019-05-16T12:17:36.548Z,14.10
2019-05-16T12:20:07.816Z,14.00
2019-05-16T12:22:37.667Z,14.00
2019-05-16T12:25:08.132Z,14.00
2019-05-16T12:27:42.139Z,13.80
2019-05-16T12:30:13.552Z,13.40
2019-05-16T12:32:39.104Z,13.40
2019-05-16T12:35:07.593Z,13.40
2019-05-16T12:37:37.193Z,13.50
2019-05-16T12:40:07.924Z,13.40
2019-05-16T12:42:36.583Z,13.20
2019-05-16T12:45:08.869Z,13.30
2019-05-16T12:47:37.764Z,13.30
2019-05-16T12:50:08.895Z,13.50
2019-05-16T12:52:38.338Z,13.20
2019-05-16T12:55:08.060Z,13.00
2019-05-16T12:57:38.296Z,12.80
2019-05-16T13:00:14.881Z,12.90
2019-05-16T13:02:39.232Z,12.90
2019-05-16T13:05:07.997Z,12.90
2019-05-16T13:07:37.695Z,12.90
2019-05-16T13:10:07.356Z,12.90
2019-05-16T13:12:37.882Z,12.50
2019-05-16T13:15:08.454Z,12.40
2019-05-16T13:17:37.431Z,12.30
2019-05-16T13:20:08.000Z,12.30
2019-05-16T13:22:38.328Z,12.30
2019-05-16T13:25:08.664Z,12.40
2019-05-16T13:27:37.636Z,12.50
2019-05-16T13:30:12.645Z,12.30
2019-05-16T13:32:41.133Z,12.40
2019-05-16T13:35:09.982Z,12.40
2019-05-16T13:37:38.573Z,12.30
2019-05-16T13:40:08.518Z,12.30
2019-05-16T13:42:37.179Z,12.10
2019-05-16T13:45:09.298Z,12.10
2019-05-16T13:47:37.973Z,12.10
2019-05-16T13:50:12.044Z,12.10
2019-05-16T13:52:38.665Z,12.00
2019-05-16T13:55:08.313Z,11.90
2019-05-16T13:57:37.373Z,11.80
2019-05-16T14:00:08.236Z,11.70
2019-05-16T14:02:37.862Z,11.60
2019-05-16T14:05:11.076Z,11.70
2019-05-16T14:07:39.558Z,11.60
2019-05-16T14:10:09.407Z,11.50
2019-05-16T14:12:38.089Z,11.70
2019-05-16T14:15:08.467Z,11.60
2019-05-16T14:17:37.376Z,11.70
2019-05-16T14:20:14.437Z,11.70
2019-05-16T14:22:38.971Z,11.70
2019-05-16T14:25:07.640Z,11.80
2019-05-16T14:27:38.329Z,11.80
2019-05-16T14:30:08.404Z,11.80
2019-05-16T14:32:40.950Z,11.80
2019-05-16T14:35:08.924Z,11.70
2019-05-16T14:37:38.221Z,11.70
2019-05-16T14:40:08.754Z,11.70
2019-05-16T14:42:38.627Z,11.60
2019-05-16T14:45:12.646Z,11.60
2019-05-16T14:47:40.386Z,11.50
2019-05-16T14:50:13.699Z,11.70
2019-05-16T14:52:40.102Z,11.80
2019-05-16T14:55:09.048Z,11.90
2019-05-16T14:57:38.997Z,11.90
2019-05-16T15:00:08.721Z,11.80
2019-05-16T15:02:38.646Z,11.70
2019-05-16T15:05:08.260Z,11.80
2019-05-16T15:07:37.523Z,11.90
2019-05-16T15:10:08.017Z,12.00
2019-05-16T15:12:37.609Z,11.90
2019-05-16T15:15:19.360Z,12.00
2019-05-16T15:17:38.069Z,11.90
2019-05-16T15:20:09.289Z,11.70
2019-05-16T15:22:38.551Z,11.80
2019-05-16T15:25:08.180Z,11.90
2019-05-16T15:27:37.302Z,11.80
2019-05-16T15:30:08.948Z,11.70
2019-05-16T15:32:38.563Z,11.50
2019-05-16T15:35:09.317Z,11.40
2019-05-16T15:37:37.995Z,11.40
2019-05-16T15:40:07.946Z,11.50
2019-05-16T15:42:37.327Z,11.50
2019-05-16T15:45:07.814Z,11.50
2019-05-16T15:47:37.494Z,11.50
2019-05-16T15:50:08.956Z,11.40
2019-05-16T15:52:38.452Z,11.40
2019-05-16T15:55:10.752Z,11.40
2019-05-16T15:57:39.178Z,11.40
2019-05-16T16:00:10.745Z,11.40
2019-05-16T16:02:39.624Z,11.40
2019-05-16T16:05:08.941Z,11.40
2019-05-16T16:07:38.057Z,11.50
2019-05-16T16:10:07.664Z,11.50
2019-05-16T16:12:37.594Z,11.40
2019-05-16T16:15:07.970Z,11.30
2019-05-16T16:17:38.089Z,11.30
2019-05-16T16:20:10.393Z,11.30
2019-05-16T16:22:37.892Z,11.40
2019-05-16T16:25:07.402Z,11.40
2019-05-16T16:27:36.090Z,11.30
2019-05-16T16:30:07.072Z,11.20
2019-05-16T16:32:38.067Z,11.20
2019-05-16T16:35:08.001Z,11.10
2019-05-16T16:37:37.899Z,11.10
2019-05-16T16:40:11.332Z,11.10
2019-05-16T16:42:37.787Z,11.00
2019-05-16T16:45:07.662Z,11.00
2019-05-16T16:47:37.727Z,10.90
2019-05-16T16:50:07.842Z,10.80
2019-05-16T16:52:37.854Z,10.90
2019-05-16T16:55:10.676Z,10.80
2019-05-16T16:57:39.104Z,10.80
2019-05-16T17:00:09.828Z,10.80
2019-05-16T17:02:38.260Z,10.80
2019-05-16T17:05:11.273Z,10.70
2019-05-16T17:07:38.164Z,10.70
2019-05-16T17:10:08.708Z,10.60
2019-05-16T17:12:41.926Z,10.70
2019-05-16T17:15:09.563Z,10.60
2019-05-16T17:17:38.005Z,10.50
2019-05-16T17:20:09.115Z,10.50
2019-05-16T17:22:38.118Z,10.40
2019-05-16T17:25:10.223Z,10.50
2019-05-16T17:27:38.706Z,10.50
2019-05-16T17:30:19.197Z,10.50
2019-05-16T17:32:47.793Z,10.50
2019-05-16T17:35:18.803Z,10.50
2019-05-16T17:37:48.824Z,10.50
2019-05-16T17:40:18.379Z,10.40
2019-05-16T17:42:47.600Z,10.40
2019-05-16T17:45:18.434Z,10.40
2019-05-16T17:47:47.133Z,10.40
2019-05-16T17:50:17.303Z,10.40
2019-05-16T17:52:47.712Z,10.40
2019-05-16T17:55:17.331Z,10.30
2019-05-16T17:57:46.184Z,10.40
2019-05-16T18:00:24.441Z,10.30
2019-05-16T18:02:46.649Z,10.20
2019-05-16T18:05:17.071Z,10.20
2019-05-16T18:07:47.408Z,10.20
2019-05-16T18:10:17.287Z,10.20
2019-05-16T18:12:48.090Z,10.20
2019-05-16T18:15:20.557Z,10.20
2019-05-16T18:17:48.974Z,10.20
2019-05-16T18:20:18.042Z,10.20
2019-05-16T18:22:47.184Z,10.20
2019-05-16T18:25:16.795Z,10.10
2019-05-16T18:27:45.306Z,10.10
2019-05-16T18:30:16.504Z,10.10
2019-05-16T18:32:44.647Z,10.20
2019-05-16T18:35:13.484Z,10.10
2019-05-16T18:37:41.900Z,10.10
2019-05-16T18:40:12.554Z,10.00
2019-05-16T18:42:40.976Z,10.00
2019-05-16T18:45:10.047Z,10.00
2019-05-16T18:47:38.717Z,10.10
2019-05-16T18:50:08.200Z,10.00
2019-05-16T18:52:37.440Z,10.00
2019-05-16T18:55:08.557Z,9.90
2019-05-16T18:57:37.671Z,9.90
2019-05-16T19:00:10.720Z,9.90
2019-05-16T19:02:39.578Z,9.90
2019-05-16T19:05:09.145Z,9.90
2019-05-16T19:07:38.032Z,9.90
2019-05-16T19:10:08.081Z,9.90
2019-05-16T19:12:37.265Z,9.90
2019-05-16T19:15:09.469Z,9.90
2019-05-16T19:17:38.586Z,9.90
2019-05-16T19:20:08.477Z,9.90
2019-05-16T19:22:37.416Z,9.80
2019-05-16T19:25:18.771Z,9.70
2019-05-16T19:27:47.800Z,9.70
2019-05-16T19:30:17.648Z,9.70
2019-05-16T19:32:46.860Z,9.70
2019-05-16T19:35:16.454Z,9.70
2019-05-16T19:37:47.015Z,9.70
2019-05-16T19:40:17.202Z,9.70
2019-05-16T19:42:47.157Z,9.70
2019-05-16T19:45:17.161Z,9.70
2019-05-16T19:47:46.942Z,9.60
2019-05-16T19:50:16.305Z,9.60
2019-05-16T19:52:47.241Z,9.70
2019-05-16T19:55:15.592Z,9.70
2019-05-16T19:57:46.516Z,9.60
2019-05-16T20:00:19.297Z,9.60
2019-05-16T20:02:47.843Z,9.60
2019-05-16T20:05:17.883Z,9.60
2019-05-16T20:07:46.293Z,9.50
2019-05-16T20:10:16.868Z,9.50
2019-05-16T20:12:46.309Z,9.50
2019-05-16T20:15:16.587Z,9.50
2019-05-16T20:17:52.101Z,9.50
2019-05-16T20:20:18.729Z,9.60
2019-05-16T20:22:47.536Z,9.60
2019-05-16T20:25:16.734Z,9.60
2019-05-16T20:27:46.946Z,9.70
2019-05-16T20:30:17.285Z,9.60
2019-05-16T20:32:45.803Z,9.60
2019-05-16T20:35:14.473Z,9.50
2019-05-16T20:37:42.941Z,9.50
2019-05-16T20:40:12.653Z,9.50
2019-05-16T20:42:41.193Z,9.50
2019-05-16T20:45:10.570Z,9.50
2019-05-16T20:47:38.976Z,9.50
2019-05-16T20:50:08.824Z,9.40
2019-05-16T20:52:38.079Z,9.40
2019-05-16T20:55:07.827Z,9.50
2019-05-16T20:57:37.729Z,9.50
2019-05-16T21:00:10.797Z,9.40
2019-05-16T21:02:39.371Z,9.40
2019-05-16T21:05:08.233Z,9.40
2019-05-16T21:07:37.554Z,9.40
2019-05-16T21:10:08.154Z,9.30
2019-05-16T21:12:40.043Z,9.30
2019-05-16T21:15:08.218Z,9.20
2019-05-16T21:17:36.615Z,9.30
2019-05-16T21:20:07.385Z,9.20
2019-05-16T21:22:37.006Z,9.20
2019-05-16T21:25:06.772Z,9.20
2019-05-16T21:27:37.596Z,9.10
2019-05-16T21:30:07.563Z,9.00
2019-05-16T21:32:36.665Z,8.90
2019-05-16T21:35:08.577Z,8.90
2019-05-16T21:37:37.559Z,8.80
2019-05-16T21:40:09.496Z,8.70
2019-05-16T21:42:37.892Z,8.70
2019-05-16T21:45:07.756Z,8.70
2019-05-16T21:47:36.955Z,8.60
2019-05-16T21:50:08.178Z,8.50
2019-05-16T21:52:36.658Z,8.50
2019-05-16T21:55:09.421Z,8.40
2019-05-16T21:57:38.043Z,8.30
2019-05-16T22:00:11.217Z,8.20
2019-05-16T22:02:39.883Z,8.20
2019-05-16T22:05:08.603Z,8.10
2019-05-16T22:07:37.025Z,8.00
2019-05-16T22:10:07.455Z,8.00
2019-05-16T22:12:38.208Z,8.00
2019-05-16T22:15:06.749Z,7.90
2019-05-16T22:17:36.699Z,7.90
2019-05-16T22:20:08.689Z,7.90
2019-05-16T22:22:38.146Z,7.80
2019-05-16T22:25:07.826Z,7.80
2019-05-16T22:27:36.333Z,7.80
2019-05-16T22:30:07.882Z,7.80
2019-05-16T22:32:36.388Z,7.90
2019-05-16T22:35:07.807Z,7.90
2019-05-16T22:37:48.872Z,7.90
2019-05-16T22:40:07.716Z,7.90
2019-05-16T22:42:37.447Z,7.90
2019-05-16T22:45:09.744Z,7.90
2019-05-16T22:47:38.160Z,7.80
2019-05-16T22:50:10.732Z,7.90
2019-05-16T22:52:39.141Z,7.80
2019-05-16T22:55:07.995Z,7.80
2019-05-16T22:57:36.407Z,7.80
2019-05-16T23:00:07.756Z,7.80
2019-05-16T23:02:36.793Z,7.80
2019-05-16T23:05:07.325Z,7.70
2019-05-16T23:07:36.754Z,7.80
2019-05-16T23:10:07.305Z,7.70
2019-05-16T23:12:37.242Z,7.70
2019-05-16T23:15:06.730Z,7.60
2019-05-16T23:17:37.510Z,7.60
2019-05-16T23:20:06.481Z,7.50
2019-05-16T23:22:36.769Z,7.50
2019-05-16T23:25:06.686Z,7.50
2019-05-16T23:27:36.752Z,7.50
2019-05-16T23:30:08.480Z,7.50
2019-05-16T23:32:36.885Z,7.40
2019-05-16T23:35:07.049Z,7.40
2019-05-16T23:37:36.989Z,7.40
2019-05-16T23:40:06.735Z,7.50
2019-05-16T23:42:37.112Z,7.50
2019-05-16T23:45:08.670Z,7.40
2019-05-16T23:47:37.669Z,7.40
2019-05-16T23:50:07.504Z,7.30
2019-05-16T23:52:36.856Z,7.30
2019-05-16T23:55:08.921Z,7.30
2019-05-16T23:57:37.684Z,7.20
